Visitor — CQBK — position and weather

sailwx.info

Track history (hours):
 
Tides and Currents Weather Stations Pressure Air Temp Water Temp Dewpoint Dewpoint Depression Visibility Wind Speed Wind Dir Waves Ship Positions

Visitor

Last reported at 2017-Nov-22 19:33 UTC. Time now 2017-Nov-24 21:03 UTC.
Position N 40°32' E 014°07'.

Length 135 m; draft 7.7 m.

Type: Ship (hazmat cat D). MMSI: 255805839.

Date/timePositionNaut miles runAvg speedWind from/ knotsBaromVisibWave heightAir tempDewpointWater temp
2017-Nov-22 19:33N 40°32' E 014°07'211.7
2017-Nov-22 19:22N 40°34' E 014°08'  
2017-Nov-20 00:30N 43°55' E 009°15'510.2
2017-Nov-20 00:00N 43°59' E 009°10'510.3
2017-Nov-19 23:30N 44°02' E 009°05'510.3
2017-Nov-19 23:00N 44°06' E 009°00'510.1
2017-Nov-19 22:30N 44°10' E 008°56'510.2
2017-Nov-19 22:00N 44°14' E 008°51'510.2
2017-Nov-19 21:30N 44°17' E 008°46'510.0
2017-Nov-19 21:01N 44°21' E 008°42'5 9.5
2017-Nov-19 20:30N 44°25' E 008°47'1 1.3
2017-Nov-19 20:00N 44°25' E 008°47'0 0.0
2017-Nov-19 19:30N 44°25' E 008°47'0 0.0
2017-Nov-19 19:00N 44°25' E 008°47'0 0.0
2017-Nov-19 18:30N 44°25' E 008°47'0 0.0
2017-Nov-19 18:00N 44°25' E 008°47'0 0.0
2017-Nov-19 17:30N 44°25' E 008°47'0 0.0
2017-Nov-19 17:00N 44°25' E 008°47'0 0.0
2017-Nov-19 16:30N 44°25' E 008°47'0 0.0
2017-Nov-19 16:00N 44°25' E 008°47'0 0.0
2017-Nov-19 15:30N 44°25' E 008°47'0 0.0
2017-Nov-19 15:00N 44°25' E 008°47'0 0.0
2017-Nov-19 14:30N 44°25' E 008°47'0 0.0
2017-Nov-19 14:00N 44°25' E 008°47'0 0.0
2017-Nov-19 13:30N 44°25' E 008°47'0 0.0
2017-Nov-19 13:00N 44°25' E 008°47'0 0.0
2017-Nov-19 12:30N 44°25' E 008°47'0 0.0
2017-Nov-19 12:00N 44°25' E 008°47'0 0.0
2017-Nov-19 11:30N 44°25' E 008°47'0 0.0
2017-Nov-19 11:00N 44°25' E 008°47'0 0.0
2017-Nov-19 10:30N 44°25' E 008°47'0 0.0
2017-Nov-19 10:00N 44°25' E 008°47'0 0.0
2017-Nov-19 09:30N 44°25' E 008°47'0 0.0
2017-Nov-19 09:00N 44°25' E 008°47'0 0.0
2017-Nov-19 08:30N 44°25' E 008°47'0 0.0
2017-Nov-19 08:00N 44°25' E 008°47'0 0.0
2017-Nov-19 07:30N 44°25' E 008°47'0 0.0
2017-Nov-19 07:00N 44°25' E 008°47'0 0.0
2017-Nov-19 06:30N 44°25' E 008°47'0 0.0
2017-Nov-19 06:00N 44°25' E 008°47'0 0.0
2017-Nov-19 05:30N 44°25' E 008°47'0 0.0
2017-Nov-19 05:00N 44°25' E 008°47'0 0.0
2017-Nov-19 04:30N 44°25' E 008°47'0 0.0
2017-Nov-19 04:00N 44°25' E 008°47'0 0.0
2017-Nov-19 03:27N 44°25' E 008°47'0 0.0
2017-Nov-19 02:54N 44°25' E 008°47'0 0.0
2017-Nov-19 02:30N 44°25' E 008°47'0 0.0
2017-Nov-19 01:57N 44°25' E 008°47'0 0.0
2017-Nov-19 01:30N 44°25' E 008°47'0 0.0
2017-Nov-19 00:57N 44°25' E 008°47'0 0.0
2017-Nov-19 00:31N 44°25' E 008°47'2 3.7
2017-Nov-19 00:00N 44°24' E 008°45'1 2.3
2017-Nov-18 23:30N 44°23' E 008°45'612.8
2017-Nov-18 23:01N 44°22' E 008°53'3 5.7
2017-Nov-18 22:30N 44°24' E 008°55'0 0.4
2017-Nov-18 21:58N 44°24' E 008°55'0 0.0
2017-Nov-18 21:28N 44°24' E 008°55'0 0.0
2017-Nov-18 20:55N 44°24' E 008°55'0 0.0
2017-Nov-18 20:28N 44°24' E 008°55'0 0.0
2017-Nov-18 19:58N 44°24' E 008°55'0 0.0
2017-Nov-18 19:28N 44°24' E 008°55'0 0.0
2017-Nov-18 18:58N 44°24' E 008°55'0 0.0
2017-Nov-18 18:28N 44°24' E 008°55'0 0.0
2017-Nov-18 17:58N 44°24' E 008°55'0 0.0
2017-Nov-18 17:28N 44°24' E 008°55'0 0.0
2017-Nov-18 16:58N 44°24' E 008°55'0 0.0
2017-Nov-18 16:28N 44°24' E 008°55'0 0.0
2017-Nov-18 15:58N 44°24' E 008°55'0 0.0
2017-Nov-18 15:28N 44°24' E 008°55'0 0.0
2017-Nov-18 14:58N 44°24' E 008°55'0 0.0
2017-Nov-18 14:28N 44°24' E 008°55'0 0.0
2017-Nov-18 13:58N 44°24' E 008°55'0 0.0
2017-Nov-18 13:28N 44°24' E 008°55'0 0.0
2017-Nov-18 12:58N 44°24' E 008°55'0 0.0
2017-Nov-18 12:28N 44°24' E 008°55'0 0.0
2017-Nov-18 11:55N 44°24' E 008°55'0 0.0
2017-Nov-18 11:28N 44°24' E 008°55'0 0.2
2017-Nov-18 10:55N 44°24' E 008°55'1 2.1
2017-Nov-18 10:30N 44°24' E 008°54'0 0.4
2017-Nov-18 10:00N 44°24' E 008°54'0 0.0
2017-Nov-18 09:30N 44°24' E 008°54'0 0.0
2017-Nov-18 09:00N 44°24' E 008°54'0 0.0
2017-Nov-18 08:30N 44°24' E 008°54'0 0.0
2017-Nov-18 08:00N 44°24' E 008°54'0 0.0
2017-Nov-18 07:30N 44°24' E 008°54'0 0.0
2017-Nov-18 07:00N 44°24' E 008°54'0 0.0
2017-Nov-18 06:30N 44°24' E 008°54'0 0.0
2017-Nov-18 06:00N 44°24' E 008°54'0 0.0
2017-Nov-18 05:30N 44°24' E 008°54'0 0.0
2017-Nov-18 05:00N 44°24' E 008°54'0 0.0
2017-Nov-18 04:30N 44°24' E 008°54'0 0.0
2017-Nov-18 04:00N 44°24' E 008°54'0 0.0
2017-Nov-18 03:30N 44°24' E 008°54'0 0.0
2017-Nov-18 03:00N 44°24' E 008°54'0 0.0
2017-Nov-18 02:30N 44°24' E 008°54'0 0.0
2017-Nov-18 02:00N 44°24' E 008°54'0 0.0
2017-Nov-18 01:30N 44°24' E 008°54'0 0.0
2017-Nov-18 01:00N 44°24' E 008°54'0 0.0
2017-Nov-18 00:30N 44°24' E 008°54'0 0.4
2017-Nov-18 00:00N 44°24' E 008°54'3 6.2
2017-Nov-17 23:30N 44°23' E 008°58'2 4.2
2017-Nov-17 23:00N 44°21' E 008°60'1 1.0
2017-Nov-17 22:30N 44°21' E 009°00'2 4.1
2017-Nov-17 22:00N 44°19' E 009°01'0 0.7
2017-Nov-17 21:30N 44°18' E 009°01'1 1.1
2017-Nov-17 21:00N 44°18' E 009°01'0 0.7
2017-Nov-17 20:30N 44°17' E 009°01'0 0.8
2017-Nov-17 20:00N 44°17' E 009°00'0 0.8
2017-Nov-17 19:30N 44°17' E 009°01'0 0.7
2017-Nov-17 19:00N 44°17' E 009°00'0 0.7
2017-Nov-17 18:30N 44°17' E 008°60'0 0.9
2017-Nov-17 18:00N 44°17' E 009°00'0 0.7
2017-Nov-17 17:30N 44°17' E 009°01'1 2.2
2017-Nov-17 17:00N 44°16' E 009°01'510.2
2017-Nov-17 16:30N 44°11' E 009°04'510.3
2017-Nov-17 16:00N 44°06' E 009°06'510.6
2017-Nov-17 15:30N 44°01' E 009°09'510.6
2017-Nov-17 15:00N 43°57' E 009°13'510.5
2017-Nov-17 14:30N 43°53' E 009°18'510.3
2017-Nov-17 14:00N 43°50' E 009°23'510.7
2017-Nov-17 13:30N 43°46' E 009°29'510.7
2017-Nov-17 13:00N 43°42' E 009°34'510.4
2017-Nov-17 12:30N 43°39' E 009°40'510.1
2017-Nov-17 12:00N 43°36' E 009°45'510.2
2017-Nov-17 11:30N 43°34' E 009°52'510.2
2017-Nov-17 11:00N 43°32' E 009°58'510.2
2017-Nov-17 10:30N 43°30' E 010°05'510.2
2017-Nov-17 10:00N 43°31' E 010°12'5 9.1
2017-Nov-17 09:31N 43°33' E 010°18'2 3.3
2017-Nov-17 08:58N 43°34' E 010°18'0 0.0
2017-Nov-17 08:25N 43°34' E 010°18'0 0.0
2017-Nov-17 07:58N 43°34' E 010°18'0 0.0
2017-Nov-17 07:22N 43°34' E 010°18'0 0.0
2017-Nov-17 06:46N 43°34' E 010°18'0 0.0
2017-Nov-17 06:22N 43°34' E 010°18'0 0.0
2017-Nov-17 05:58N 43°34' E 010°18'0 0.0
2017-Nov-17 05:25N 43°34' E 010°18'0 0.0
2017-Nov-17 04:58N 43°34' E 010°18'0 0.0
2017-Nov-17 04:28N 43°34' E 010°18'0 0.0
2017-Nov-17 03:58N 43°34' E 010°18'0 0.0
2017-Nov-17 03:28N 43°34' E 010°18'0 0.0
2017-Nov-17 02:58N 43°34' E 010°18'0 0.0
2017-Nov-17 02:28N 43°34' E 010°18'0 0.0
2017-Nov-17 01:58N 43°34' E 010°18'0 0.0
2017-Nov-17 01:28N 43°34' E 010°18'0 0.0
2017-Nov-17 00:58N 43°34' E 010°18'0 0.0
2017-Nov-17 00:28N 43°34' E 010°18'0 0.0
2017-Nov-16 23:58N 43°34' E 010°18'0 0.0
2017-Nov-16 23:28N 43°34' E 010°18'0 0.0
2017-Nov-16 22:58N 43°34' E 010°18'0 0.0
2017-Nov-16 22:28N 43°34' E 010°18'0 0.0
2017-Nov-16 21:58N 43°34' E 010°18'0 0.0
2017-Nov-16 21:28N 43°34' E 010°18'0 0.0
2017-Nov-16 20:58N 43°34' E 010°18'0 0.0
2017-Nov-16 20:19N 43°34' E 010°18'0 0.0
2017-Nov-16 19:58N 43°34' E 010°18'0 0.0
2017-Nov-16 19:28N 43°34' E 010°18'0 0.0
2017-Nov-16 18:58N 43°34' E 010°18'0 0.0
2017-Nov-16 18:25N 43°34' E 010°18'0 0.0
2017-Nov-16 17:58N 43°34' E 010°18'0 0.0
2017-Nov-16 17:22N 43°34' E 010°18'0 0.0
2017-Nov-16 16:58N 43°34' E 010°18'0 0.0
2017-Nov-16 16:30N 43°34' E 010°18'3 5.1
2017-Nov-16 16:00N 43°32' E 010°17'5 9.7
2017-Nov-16 15:30N 43°28' E 010°13'611.3
2017-Nov-16 15:00N 43°23' E 010°11'611.6
2017-Nov-16 14:30N 43°17' E 010°10'612.0
2017-Nov-16 13:58N 43°11' E 010°08'612.2
2017-Nov-16 13:30N 43°05' E 010°06'612.1
2017-Nov-16 13:00N 42°59' E 010°05'612.1
2017-Nov-16 12:30N 42°53' E 010°03'1511.3
2017-Nov-16 11:10N 42°39' E 010°09'612.6
2017-Nov-16 10:42N 42°34' E 010°15'712.8
2017-Nov-16 10:07N 42°29' E 010°22'213.0
2017-Nov-16 09:59N 42°28' E 010°24'18912.6
2017-Nov-15 18:59N 40°37' E 013°48'612.9
2017-Nov-15 18:30N 40°37' E 013°56'612.6
2017-Nov-15 18:00N 40°38' E 014°04'713.3
2017-Nov-15 17:30N 40°43' E 014°11'613.0
2017-Nov-15 17:00N 40°47' E 014°17'3 5.7
2017-Nov-15 16:27N 40°50' E 014°17'0 0.0
2017-Nov-15 16:00N 40°50' E 014°17'0 0.0
2017-Nov-15 15:30N 40°50' E 014°17'0 0.0
2017-Nov-15 15:00N 40°50' E 014°17'0 0.0
2017-Nov-15 14:30N 40°50' E 014°17'0 0.0
2017-Nov-15 13:45N 40°50' E 014°17'0 0.0
2017-Nov-15 11:36N 40°50' E 014°17'0 0.0
2017-Nov-15 11:30N 40°50' E 014°17'0 0.0
2017-Nov-15 09:09N 40°50' E 014°17'0 0.0
2017-Nov-15 08:51N 40°50' E 014°17'0 0.0
2017-Nov-15 07:39N 40°50' E 014°17'14 1.3
2017-Nov-14 20:20N 40°37' E 014°11'8 7.3
2017-Nov-14 19:11N 40°32' E 014°20'312.0
2017-Nov-14 18:54N 40°33' E 014°25'69 4.6
2017-Nov-14 04:02N 39°31' E 015°04'113.0
2017-Nov-14 04:00N 39°31' E 015°04'613.0
2017-Nov-14 03:30N 39°25' E 015°07'812.9
2017-Nov-14 02:51N 39°17' E 015°11'513.0
2017-Nov-14 02:30N 39°13' E 015°14'613.0
2017-Nov-14 02:00N 39°07' E 015°17'713.1
2017-Nov-14 01:29N 39°00' E 015°20'613.1
2017-Nov-14 01:00N 38°55' E 015°23'713.0
2017-Nov-14 00:30N 38°48' E 015°26'613.0
2017-Nov-14 00:00N 38°42' E 015°29'612.8
2017-Nov-13 23:30N 38°37' E 015°32'713.1
2017-Nov-13 23:00N 38°31' E 015°36'612.8
2017-Nov-13 22:30N 38°25' E 015°39'713.4
2017-Nov-13 22:00N 38°18' E 015°41'141 6.7
2017-Nov-13 00:49N 36°03' E 014°50'413.0
2017-Nov-13 00:30N 35°60' E 014°48'712.9
2017-Nov-13 00:00N 35°54' E 014°43'612.3
2017-Nov-12 23:30N 35°49' E 014°39'  
Track history (hours):
 
Tides and Currents Weather Stations Pressure Air Temp Water Temp Dewpoint Dewpoint Depression Visibility Wind Speed Wind Dir Waves Ship Positions

Visitor

Last reported at 2017-Nov-22 19:33 UTC. Time now 2017-Nov-24 21:03 UTC.
Position N 40°32' E 014°07'.

Length 135 m; draft 7.7 m.

Type: Ship (hazmat cat D). MMSI: 255805839.

Date/timePositionNaut miles runAvg speedWind from/ knotsBaromVisibWave heightAir tempDewpointWater temp
2017-Nov-22 19:33N 40°32' E 014°07'211.7
2017-Nov-22 19:22N 40°34' E 014°08'  
2017-Nov-20 00:30N 43°55' E 009°15'510.2
2017-Nov-20 00:00N 43°59' E 009°10'510.3
2017-Nov-19 23:30N 44°02' E 009°05'510.3
2017-Nov-19 23:00N 44°06' E 009°00'510.1
2017-Nov-19 22:30N 44°10' E 008°56'510.2
2017-Nov-19 22:00N 44°14' E 008°51'510.2
2017-Nov-19 21:30N 44°17' E 008°46'510.0
2017-Nov-19 21:01N 44°21' E 008°42'5 9.5
2017-Nov-19 20:30N 44°25' E 008°47'1 1.3
2017-Nov-19 20:00N 44°25' E 008°47'0 0.0
2017-Nov-19 19:30N 44°25' E 008°47'0 0.0
2017-Nov-19 19:00N 44°25' E 008°47'0 0.0
2017-Nov-19 18:30N 44°25' E 008°47'0 0.0
2017-Nov-19 18:00N 44°25' E 008°47'0 0.0
2017-Nov-19 17:30N 44°25' E 008°47'0 0.0
2017-Nov-19 17:00N 44°25' E 008°47'0 0.0
2017-Nov-19 16:30N 44°25' E 008°47'0 0.0
2017-Nov-19 16:00N 44°25' E 008°47'0 0.0
2017-Nov-19 15:30N 44°25' E 008°47'0 0.0
2017-Nov-19 15:00N 44°25' E 008°47'0 0.0
2017-Nov-19 14:30N 44°25' E 008°47'0 0.0
2017-Nov-19 14:00N 44°25' E 008°47'0 0.0
2017-Nov-19 13:30N 44°25' E 008°47'0 0.0
2017-Nov-19 13:00N 44°25' E 008°47'0 0.0
2017-Nov-19 12:30N 44°25' E 008°47'0 0.0
2017-Nov-19 12:00N 44°25' E 008°47'0 0.0
2017-Nov-19 11:30N 44°25' E 008°47'0 0.0
2017-Nov-19 11:00N 44°25' E 008°47'0 0.0
2017-Nov-19 10:30N 44°25' E 008°47'0 0.0
2017-Nov-19 10:00N 44°25' E 008°47'0 0.0
2017-Nov-19 09:30N 44°25' E 008°47'0 0.0
2017-Nov-19 09:00N 44°25' E 008°47'0 0.0
2017-Nov-19 08:30N 44°25' E 008°47'0 0.0
2017-Nov-19 08:00N 44°25' E 008°47'0 0.0
2017-Nov-19 07:30N 44°25' E 008°47'0 0.0
2017-Nov-19 07:00N 44°25' E 008°47'0 0.0
2017-Nov-19 06:30N 44°25' E 008°47'0 0.0
2017-Nov-19 06:00N 44°25' E 008°47'0 0.0
2017-Nov-19 05:30N 44°25' E 008°47'0 0.0
2017-Nov-19 05:00N 44°25' E 008°47'0 0.0
2017-Nov-19 04:30N 44°25' E 008°47'0 0.0
2017-Nov-19 04:00N 44°25' E 008°47'0 0.0
2017-Nov-19 03:27N 44°25' E 008°47'0 0.0
2017-Nov-19 02:54N 44°25' E 008°47'0 0.0
2017-Nov-19 02:30N 44°25' E 008°47'0 0.0
2017-Nov-19 01:57N 44°25' E 008°47'0 0.0
2017-Nov-19 01:30N 44°25' E 008°47'0 0.0
2017-Nov-19 00:57N 44°25' E 008°47'0 0.0
2017-Nov-19 00:31N 44°25' E 008°47'2 3.7
2017-Nov-19 00:00N 44°24' E 008°45'1 2.3
2017-Nov-18 23:30N 44°23' E 008°45'612.8
2017-Nov-18 23:01N 44°22' E 008°53'3 5.7
2017-Nov-18 22:30N 44°24' E 008°55'0 0.4
2017-Nov-18 21:58N 44°24' E 008°55'0 0.0
2017-Nov-18 21:28N 44°24' E 008°55'0 0.0
2017-Nov-18 20:55N 44°24' E 008°55'0 0.0
2017-Nov-18 20:28N 44°24' E 008°55'0 0.0
2017-Nov-18 19:58N 44°24' E 008°55'0 0.0
2017-Nov-18 19:28N 44°24' E 008°55'0 0.0
2017-Nov-18 18:58N 44°24' E 008°55'0 0.0
2017-Nov-18 18:28N 44°24' E 008°55'0 0.0
2017-Nov-18 17:58N 44°24' E 008°55'0 0.0
2017-Nov-18 17:28N 44°24' E 008°55'0 0.0
2017-Nov-18 16:58N 44°24' E 008°55'0 0.0
2017-Nov-18 16:28N 44°24' E 008°55'0 0.0
2017-Nov-18 15:58N 44°24' E 008°55'0 0.0
2017-Nov-18 15:28N 44°24' E 008°55'0 0.0
2017-Nov-18 14:58N 44°24' E 008°55'0 0.0
2017-Nov-18 14:28N 44°24' E 008°55'0 0.0
2017-Nov-18 13:58N 44°24' E 008°55'0 0.0
2017-Nov-18 13:28N 44°24' E 008°55'0 0.0
2017-Nov-18 12:58N 44°24' E 008°55'0 0.0
2017-Nov-18 12:28N 44°24' E 008°55'0 0.0
2017-Nov-18 11:55N 44°24' E 008°55'0 0.0
2017-Nov-18 11:28N 44°24' E 008°55'0 0.2
2017-Nov-18 10:55N 44°24' E 008°55'1 2.1
2017-Nov-18 10:30N 44°24' E 008°54'0 0.4
2017-Nov-18 10:00N 44°24' E 008°54'0 0.0
2017-Nov-18 09:30N 44°24' E 008°54'0 0.0
2017-Nov-18 09:00N 44°24' E 008°54'0 0.0
2017-Nov-18 08:30N 44°24' E 008°54'0 0.0
2017-Nov-18 08:00N 44°24' E 008°54'0 0.0
2017-Nov-18 07:30N 44°24' E 008°54'0 0.0
2017-Nov-18 07:00N 44°24' E 008°54'0 0.0
2017-Nov-18 06:30N 44°24' E 008°54'0 0.0
2017-Nov-18 06:00N 44°24' E 008°54'0 0.0
2017-Nov-18 05:30N 44°24' E 008°54'0 0.0
2017-Nov-18 05:00N 44°24' E 008°54'0 0.0
2017-Nov-18 04:30N 44°24' E 008°54'0 0.0
2017-Nov-18 04:00N 44°24' E 008°54'0 0.0
2017-Nov-18 03:30N 44°24' E 008°54'0 0.0
2017-Nov-18 03:00N 44°24' E 008°54'0 0.0
2017-Nov-18 02:30N 44°24' E 008°54'0 0.0
2017-Nov-18 02:00N 44°24' E 008°54'0 0.0
2017-Nov-18 01:30N 44°24' E 008°54'0 0.0
2017-Nov-18 01:00N 44°24' E 008°54'0 0.0
2017-Nov-18 00:30N 44°24' E 008°54'0 0.4
2017-Nov-18 00:00N 44°24' E 008°54'3 6.2
2017-Nov-17 23:30N 44°23' E 008°58'2 4.2
2017-Nov-17 23:00N 44°21' E 008°60'1 1.0
2017-Nov-17 22:30N 44°21' E 009°00'2 4.1
2017-Nov-17 22:00N 44°19' E 009°01'0 0.7
2017-Nov-17 21:30N 44°18' E 009°01'1 1.1
2017-Nov-17 21:00N 44°18' E 009°01'0 0.7
2017-Nov-17 20:30N 44°17' E 009°01'0 0.8
2017-Nov-17 20:00N 44°17' E 009°00'0 0.8
2017-Nov-17 19:30N 44°17' E 009°01'0 0.7
2017-Nov-17 19:00N 44°17' E 009°00'0 0.7
2017-Nov-17 18:30N 44°17' E 008°60'0 0.9
2017-Nov-17 18:00N 44°17' E 009°00'0 0.7
2017-Nov-17 17:30N 44°17' E 009°01'1 2.2
2017-Nov-17 17:00N 44°16' E 009°01'510.2
2017-Nov-17 16:30N 44°11' E 009°04'510.3
2017-Nov-17 16:00N 44°06' E 009°06'510.6
2017-Nov-17 15:30N 44°01' E 009°09'510.6
2017-Nov-17 15:00N 43°57' E 009°13'510.5
2017-Nov-17 14:30N 43°53' E 009°18'510.3
2017-Nov-17 14:00N 43°50' E 009°23'510.7
2017-Nov-17 13:30N 43°46' E 009°29'510.7
2017-Nov-17 13:00N 43°42' E 009°34'510.4
2017-Nov-17 12:30N 43°39' E 009°40'510.1
2017-Nov-17 12:00N 43°36' E 009°45'510.2
2017-Nov-17 11:30N 43°34' E 009°52'510.2
2017-Nov-17 11:00N 43°32' E 009°58'510.2
2017-Nov-17 10:30N 43°30' E 010°05'510.2
2017-Nov-17 10:00N 43°31' E 010°12'5 9.1
2017-Nov-17 09:31N 43°33' E 010°18'2 3.3
2017-Nov-17 08:58N 43°34' E 010°18'0 0.0
2017-Nov-17 08:25N 43°34' E 010°18'0 0.0
2017-Nov-17 07:58N 43°34' E 010°18'0 0.0
2017-Nov-17 07:22N 43°34' E 010°18'0 0.0
2017-Nov-17 06:46N 43°34' E 010°18'0 0.0
2017-Nov-17 06:22N 43°34' E 010°18'0 0.0
2017-Nov-17 05:58N 43°34' E 010°18'0 0.0
2017-Nov-17 05:25N 43°34' E 010°18'0 0.0
2017-Nov-17 04:58N 43°34' E 010°18'0 0.0
2017-Nov-17 04:28N 43°34' E 010°18'0 0.0
2017-Nov-17 03:58N 43°34' E 010°18'0 0.0
2017-Nov-17 03:28N 43°34' E 010°18'0 0.0
2017-Nov-17 02:58N 43°34' E 010°18'0 0.0
2017-Nov-17 02:28N 43°34' E 010°18'0 0.0
2017-Nov-17 01:58N 43°34' E 010°18'0 0.0
2017-Nov-17 01:28N 43°34' E 010°18'0 0.0
2017-Nov-17 00:58N 43°34' E 010°18'0 0.0
2017-Nov-17 00:28N 43°34' E 010°18'0 0.0
2017-Nov-16 23:58N 43°34' E 010°18'0 0.0
2017-Nov-16 23:28N 43°34' E 010°18'0 0.0
2017-Nov-16 22:58N 43°34' E 010°18'0 0.0
2017-Nov-16 22:28N 43°34' E 010°18'0 0.0
2017-Nov-16 21:58N 43°34' E 010°18'0 0.0
2017-Nov-16 21:28N 43°34' E 010°18'0 0.0
2017-Nov-16 20:58N 43°34' E 010°18'0 0.0
2017-Nov-16 20:19N 43°34' E 010°18'0 0.0
2017-Nov-16 19:58N 43°34' E 010°18'0 0.0
2017-Nov-16 19:28N 43°34' E 010°18'0 0.0
2017-Nov-16 18:58N 43°34' E 010°18'0 0.0
2017-Nov-16 18:25N 43°34' E 010°18'0 0.0
2017-Nov-16 17:58N 43°34' E 010°18'0 0.0
2017-Nov-16 17:22N 43°34' E 010°18'0 0.0
2017-Nov-16 16:58N 43°34' E 010°18'0 0.0
2017-Nov-16 16:30N 43°34' E 010°18'3 5.1
2017-Nov-16 16:00N 43°32' E 010°17'5 9.7
2017-Nov-16 15:30N 43°28' E 010°13'611.3
2017-Nov-16 15:00N 43°23' E 010°11'611.6
2017-Nov-16 14:30N 43°17' E 010°10'612.0
2017-Nov-16 13:58N 43°11' E 010°08'612.2
2017-Nov-16 13:30N 43°05' E 010°06'612.1
2017-Nov-16 13:00N 42°59' E 010°05'612.1
2017-Nov-16 12:30N 42°53' E 010°03'1511.3
2017-Nov-16 11:10N 42°39' E 010°09'612.6
2017-Nov-16 10:42N 42°34' E 010°15'712.8
2017-Nov-16 10:07N 42°29' E 010°22'213.0
2017-Nov-16 09:59N 42°28' E 010°24'18912.6
2017-Nov-15 18:59N 40°37' E 013°48'612.9
2017-Nov-15 18:30N 40°37' E 013°56'612.6
2017-Nov-15 18:00N 40°38' E 014°04'713.3
2017-Nov-15 17:30N 40°43' E 014°11'613.0
2017-Nov-15 17:00N 40°47' E 014°17'3 5.7
2017-Nov-15 16:27N 40°50' E 014°17'0 0.0
2017-Nov-15 16:00N 40°50' E 014°17'0 0.0
2017-Nov-15 15:30N 40°50' E 014°17'0 0.0
2017-Nov-15 15:00N 40°50' E 014°17'0 0.0
2017-Nov-15 14:30N 40°50' E 014°17'0 0.0
2017-Nov-15 13:45N 40°50' E 014°17'0 0.0
2017-Nov-15 11:36N 40°50' E 014°17'0 0.0
2017-Nov-15 11:30N 40°50' E 014°17'0 0.0
2017-Nov-15 09:09N 40°50' E 014°17'0 0.0
2017-Nov-15 08:51N 40°50' E 014°17'0 0.0
2017-Nov-15 07:39N 40°50' E 014°17'14 1.3
2017-Nov-14 20:20N 40°37' E 014°11'8 7.3
2017-Nov-14 19:11N 40°32' E 014°20'312.0
2017-Nov-14 18:54N 40°33' E 014°25'69 4.6
2017-Nov-14 04:02N 39°31' E 015°04'113.0
2017-Nov-14 04:00N 39°31' E 015°04'613.0
2017-Nov-14 03:30N 39°25' E 015°07'812.9
2017-Nov-14 02:51N 39°17' E 015°11'513.0
2017-Nov-14 02:30N 39°13' E 015°14'613.0
2017-Nov-14 02:00N 39°07' E 015°17'713.1
2017-Nov-14 01:29N 39°00' E 015°20'613.1
2017-Nov-14 01:00N 38°55' E 015°23'713.0
2017-Nov-14 00:30N 38°48' E 015°26'613.0
2017-Nov-14 00:00N 38°42' E 015°29'612.8
2017-Nov-13 23:30N 38°37' E 015°32'713.1
2017-Nov-13 23:00N 38°31' E 015°36'612.8
2017-Nov-13 22:30N 38°25' E 015°39'713.4
2017-Nov-13 22:00N 38°18' E 015°41'141 6.7
2017-Nov-13 00:49N 36°03' E 014°50'413.0
2017-Nov-13 00:30N 35°60' E 014°48'712.9
2017-Nov-13 00:00N 35°54' E 014°43'612.3
2017-Nov-12 23:30N 35°49' E 014°39'  

Dump ship's entire track history